createdAt,value
2023-01-17T00:00:17.387Z,4.60
2023-01-17T00:01:19.362Z,4.60
2023-01-17T00:02:20.892Z,4.60
2023-01-17T00:03:22.422Z,4.50
2023-01-17T00:04:42.716Z,4.50
2023-01-17T00:06:03.172Z,4.50
2023-01-17T00:07:23.319Z,4.50
2023-01-17T00:08:43.690Z,4.40
2023-01-17T00:09:54.297Z,4.40
2023-01-17T00:10:55.787Z,4.40
2023-01-17T00:11:58.829Z,4.40
2023-01-17T00:13:02.637Z,4.40
2023-01-17T00:14:04.480Z,4.50
2023-01-17T00:15:07.506Z,4.50
2023-01-17T00:16:08.947Z,4.50
2023-01-17T00:17:10.518Z,4.50
2023-01-17T00:18:12.298Z,4.50
2023-01-17T00:19:32.507Z,4.40
2023-01-17T00:20:52.753Z,4.40
2023-01-17T00:22:13.324Z,4.40
2023-01-17T00:23:34.683Z,4.40
2023-01-17T00:24:55.233Z,4.40
2023-01-17T00:26:03.163Z,4.40
2023-01-17T00:27:13.917Z,4.40
2023-01-17T00:28:15.849Z,4.50
2023-01-17T00:29:17.244Z,4.50
2023-01-17T00:30:19.410Z,4.50
2023-01-17T00:31:21.571Z,4.60
2023-01-17T00:32:23.243Z,4.50
2023-01-17T00:33:25.600Z,4.50
2023-01-17T00:34:27.101Z,4.50
2023-01-17T00:35:30.702Z,4.50
2023-01-17T00:36:32.136Z,4.50
2023-01-17T00:37:33.613Z,4.50
2023-01-17T00:38:37.637Z,4.50
2023-01-17T00:39:39.111Z,4.50
2023-01-17T00:40:42.443Z,4.50
2023-01-17T00:41:43.800Z,4.60
2023-01-17T00:42:47.568Z,4.60
2023-01-17T00:44:08.019Z,4.60
2023-01-17T00:45:28.532Z,4.60
2023-01-17T00:46:49.082Z,4.60
2023-01-17T00:48:09.495Z,4.50
2023-01-17T00:49:29.899Z,4.50
2023-01-17T00:50:50.596Z,4.50
2023-01-17T00:52:11.104Z,4.50
2023-01-17T00:53:31.343Z,4.50
2023-01-17T00:54:51.833Z,4.40
2023-01-17T00:56:11.986Z,4.40
2023-01-17T00:57:32.104Z,4.50
2023-01-17T00:58:52.318Z,4.50
2023-01-17T01:00:12.670Z,4.50
2023-01-17T01:01:33.009Z,4.50
2023-01-17T01:02:54.498Z,4.40
2023-01-17T01:04:14.770Z,4.40
2023-01-17T01:05:34.845Z,4.50
2023-01-17T01:06:55.064Z,4.50
2023-01-17T01:08:15.296Z,4.50
2023-01-17T01:09:35.832Z,4.40
2023-01-17T01:10:56.053Z,4.40
2023-01-17T01:12:16.361Z,4.40
2023-01-17T01:13:37.213Z,4.30
2023-01-17T01:14:57.789Z,4.30
2023-01-17T01:16:24.456Z,4.30
2023-01-17T01:17:44.907Z,4.40
2023-01-17T01:19:05.973Z,4.30
2023-01-17T01:20:26.228Z,4.40
2023-01-17T01:21:46.503Z,4.30
2023-01-17T01:23:06.816Z,4.30
2023-01-17T01:24:27.269Z,4.20
2023-01-17T01:25:47.297Z,4.20
2023-01-17T01:27:07.478Z,4.30
2023-01-17T01:28:31.824Z,4.30
2023-01-17T01:29:52.086Z,4.30
2023-01-17T01:31:12.853Z,4.20
2023-01-17T01:32:33.061Z,4.30
2023-01-17T01:33:34.439Z,4.20
2023-01-17T01:34:35.962Z,4.30
2023-01-17T01:35:37.526Z,4.30
2023-01-17T01:36:38.951Z,4.30
2023-01-17T01:37:40.429Z,4.30
2023-01-17T01:38:42.459Z,4.30
2023-01-17T01:39:43.868Z,4.30
2023-01-17T01:40:49.332Z,4.30
2023-01-17T01:41:50.767Z,4.40
2023-01-17T01:42:57.261Z,4.40
2023-01-17T01:43:58.858Z,4.30
2023-01-17T01:45:00.279Z,4.30
2023-01-17T01:46:02.103Z,4.30
2023-01-17T01:47:03.617Z,4.30
2023-01-17T01:48:20.451Z,4.30
2023-01-17T01:49:25.631Z,4.30
2023-01-17T01:50:28.560Z,4.30
2023-01-17T01:51:39.859Z,4.40
2023-01-17T01:52:46.588Z,4.40
2023-01-17T01:53:52.518Z,4.30
2023-01-17T01:54:58.633Z,4.40
2023-01-17T01:56:00.824Z,4.40
2023-01-17T01:57:05.088Z,4.40
2023-01-17T01:58:15.927Z,4.50
2023-01-17T01:59:21.601Z,4.50
2023-01-17T02:00:27.275Z,4.50
2023-01-17T02:01:31.100Z,4.50
2023-01-17T02:02:32.771Z,4.40
2023-01-17T02:03:35.822Z,4.40
2023-01-17T02:04:37.671Z,4.40
2023-01-17T02:05:42.429Z,4.40
2023-01-17T02:06:51.275Z,4.40
2023-01-17T02:08:07.742Z,4.40
2023-01-17T02:09:12.002Z,4.40
2023-01-17T02:10:13.410Z,4.50
2023-01-17T02:11:15.157Z,4.50
2023-01-17T02:12:18.660Z,4.60
2023-01-17T02:13:21.274Z,4.60
2023-01-17T02:14:23.611Z,4.50
2023-01-17T02:15:32.888Z,4.50
2023-01-17T02:16:56.431Z,4.50
2023-01-17T02:18:15.376Z,4.60
2023-01-17T02:20:01.447Z,4.50
2023-01-17T02:21:19.217Z,4.50
2023-01-17T02:23:01.750Z,4.40
2023-01-17T02:24:24.137Z,4.50
2023-01-17T02:26:03.471Z,4.40
2023-01-17T02:27:16.110Z,4.50
2023-01-17T02:28:17.638Z,4.40
2023-01-17T02:29:36.424Z,4.50
2023-01-17T02:30:42.708Z,4.60
2023-01-17T02:31:54.844Z,4.60
2023-01-17T02:33:24.936Z,4.50
2023-01-17T02:34:44.228Z,4.40
2023-01-17T02:35:56.788Z,4.40
2023-01-17T02:37:25.787Z,4.40
2023-01-17T02:38:38.181Z,4.40
2023-01-17T02:40:08.368Z,4.40
2023-01-17T02:41:22.212Z,4.50
2023-01-17T02:42:32.202Z,4.50
2023-01-17T02:43:35.372Z,4.50
2023-01-17T02:44:41.831Z,4.50
2023-01-17T02:45:43.776Z,4.50
2023-01-17T02:46:53.755Z,4.50
2023-01-17T02:47:55.383Z,4.50
2023-01-17T02:48:58.280Z,4.60
2023-01-17T02:50:09.488Z,4.60
2023-01-17T02:51:19.372Z,4.60
2023-01-17T02:52:20.784Z,4.60
2023-01-17T02:53:27.963Z,4.60
2023-01-17T02:54:50.561Z,4.60
2023-01-17T02:56:14.143Z,4.60
2023-01-17T02:57:58.507Z,4.60
2023-01-17T02:59:08.784Z,4.60
2023-01-17T03:00:33.516Z,4.60
2023-01-17T03:02:09.533Z,4.50
2023-01-17T03:03:39.853Z,4.50
2023-01-17T03:04:48.546Z,4.50
2023-01-17T03:05:57.628Z,4.50
2023-01-17T03:07:04.322Z,4.40
2023-01-17T03:08:06.356Z,4.50
2023-01-17T03:09:09.698Z,4.50
2023-01-17T03:10:12.952Z,4.40
2023-01-17T03:11:14.825Z,4.40
2023-01-17T03:12:16.387Z,4.40
2023-01-17T03:13:17.932Z,4.40
2023-01-17T03:14:19.320Z,4.50
2023-01-17T03:15:20.800Z,4.50
2023-01-17T03:16:23.472Z,4.50
2023-01-17T03:17:30.363Z,4.50
2023-01-17T03:18:31.887Z,4.40
2023-01-17T03:19:33.715Z,4.40
2023-01-17T03:20:35.217Z,4.40
2023-01-17T03:21:37.292Z,4.40
2023-01-17T03:22:39.162Z,4.40
2023-01-17T03:23:40.861Z,4.30
2023-01-17T03:24:42.236Z,4.40
2023-01-17T03:25:43.911Z,4.40
2023-01-17T03:26:45.347Z,4.40
2023-01-17T03:27:47.111Z,4.50
2023-01-17T03:28:48.603Z,4.40
2023-01-17T03:29:50.054Z,4.60
2023-01-17T03:30:51.541Z,4.60
2023-01-17T03:31:53.212Z,4.50
2023-01-17T03:32:55.077Z,4.50
2023-01-17T03:33:56.566Z,4.50
2023-01-17T03:34:58.225Z,4.50
2023-01-17T03:35:59.851Z,4.50
2023-01-17T03:37:01.312Z,4.50
2023-01-17T03:38:02.684Z,4.60
2023-01-17T03:39:04.243Z,4.60
2023-01-17T03:40:06.499Z,4.50
2023-01-17T03:41:08.247Z,4.50
2023-01-17T03:42:10.125Z,4.50
2023-01-17T03:43:11.911Z,4.50
2023-01-17T03:44:13.564Z,4.60
2023-01-17T03:45:15.101Z,4.50
2023-01-17T03:46:24.746Z,4.60
2023-01-17T03:47:26.223Z,4.50
2023-01-17T03:48:27.743Z,4.60
2023-01-17T03:49:29.213Z,4.60
2023-01-17T03:50:30.680Z,4.60
2023-01-17T03:51:32.121Z,4.50
2023-01-17T03:52:33.790Z,4.60
2023-01-17T03:53:35.171Z,4.70
2023-01-17T03:54:36.626Z,4.60
2023-01-17T03:55:38.028Z,4.60
2023-01-17T03:56:39.707Z,4.60
2023-01-17T03:57:41.191Z,4.60
2023-01-17T03:58:42.825Z,4.60
2023-01-17T03:59:44.956Z,4.60
2023-01-17T04:00:46.647Z,4.60
2023-01-17T04:01:48.079Z,4.70
2023-01-17T04:02:49.642Z,4.70
2023-01-17T04:03:51.525Z,4.60
2023-01-17T04:04:52.994Z,4.60
2023-01-17T04:05:54.465Z,4.60
2023-01-17T04:06:56.222Z,4.50
2023-01-17T04:07:57.593Z,4.60
2023-01-17T04:08:59.267Z,4.60
2023-01-17T04:10:00.680Z,4.60
2023-01-17T04:11:02.103Z,4.50
2023-01-17T04:12:04.125Z,4.60
2023-01-17T04:13:05.719Z,4.50
2023-01-17T04:14:07.171Z,4.60
2023-01-17T04:15:09.207Z,4.60
2023-01-17T04:16:15.326Z,4.60
2023-01-17T04:17:19.500Z,4.60
2023-01-17T04:18:23.238Z,4.60
2023-01-17T04:19:24.772Z,4.60
2023-01-17T04:20:37.727Z,4.50
2023-01-17T04:21:39.155Z,4.60
2023-01-17T04:22:40.527Z,4.50
2023-01-17T04:23:41.970Z,4.50
2023-01-17T04:24:43.410Z,4.60
2023-01-17T04:25:44.841Z,4.50
2023-01-17T04:26:46.299Z,4.60
2023-01-17T04:27:47.747Z,4.60
2023-01-17T04:28:49.486Z,4.50
2023-01-17T04:29:50.982Z,4.60
2023-01-17T04:30:52.902Z,4.60
2023-01-17T04:31:54.483Z,4.60
2023-01-17T04:32:56.546Z,4.60
2023-01-17T04:33:57.962Z,4.60
2023-01-17T04:34:59.606Z,4.60
2023-01-17T04:36:01.162Z,4.70
2023-01-17T04:37:02.595Z,4.70
2023-01-17T04:38:04.110Z,4.70
2023-01-17T04:39:05.823Z,4.60
2023-01-17T04:40:08.101Z,4.70
2023-01-17T04:41:09.602Z,4.70
2023-01-17T04:42:11.461Z,4.70
2023-01-17T04:43:12.912Z,4.70
2023-01-17T04:44:14.391Z,4.70
2023-01-17T04:45:16.054Z,4.60
2023-01-17T04:46:17.804Z,4.60
2023-01-17T04:47:19.401Z,4.50
2023-01-17T04:48:20.842Z,4.40
2023-01-17T04:49:22.225Z,4.40
2023-01-17T04:50:23.656Z,4.40
2023-01-17T04:51:25.063Z,4.30
2023-01-17T04:52:26.464Z,4.20
2023-01-17T04:53:28.234Z,4.10
2023-01-17T04:54:29.632Z,4.10
2023-01-17T04:55:31.112Z,4.10
2023-01-17T04:56:32.732Z,4.10
2023-01-17T04:57:34.195Z,4.00
2023-01-17T04:58:35.926Z,4.00
2023-01-17T04:59:37.374Z,3.90
2023-01-17T05:00:38.790Z,3.90
2023-01-17T05:01:40.326Z,3.90
2023-01-17T05:02:41.771Z,3.80
2023-01-17T05:03:43.243Z,3.70
2023-01-17T05:04:44.748Z,3.70
2023-01-17T05:05:46.392Z,3.60
2023-01-17T05:06:47.762Z,3.50
2023-01-17T05:07:58.920Z,3.50
2023-01-17T05:09:00.585Z,3.50
2023-01-17T05:10:03.127Z,3.50
2023-01-17T05:11:04.685Z,3.30
2023-01-17T05:12:06.345Z,3.30
2023-01-17T05:13:07.823Z,3.30
2023-01-17T05:14:10.429Z,3.20
2023-01-17T05:15:11.942Z,3.20
2023-01-17T05:16:13.354Z,3.10
2023-01-17T05:17:15.164Z,3.10
2023-01-17T05:18:17.903Z,3.10
2023-01-17T05:19:21.026Z,3.00
2023-01-17T05:20:24.522Z,3.00
2023-01-17T05:21:26.138Z,2.90
2023-01-17T05:22:27.805Z,2.90
2023-01-17T05:23:29.520Z,2.90
2023-01-17T05:24:31.585Z,3.00
2023-01-17T05:25:34.091Z,2.90
2023-01-17T05:26:35.813Z,2.90
2023-01-17T05:27:37.427Z,2.90
2023-01-17T05:28:38.863Z,2.80
2023-01-17T05:29:40.725Z,2.80
2023-01-17T05:30:42.437Z,2.70
2023-01-17T05:31:43.880Z,2.70
2023-01-17T05:32:49.622Z,2.70
2023-01-17T05:33:51.060Z,2.70
2023-01-17T05:34:52.607Z,2.60
2023-01-17T05:35:54.411Z,2.60
2023-01-17T05:36:55.918Z,2.60
2023-01-17T05:37:57.888Z,2.50
2023-01-17T05:38:59.262Z,2.50
2023-01-17T05:40:00.681Z,2.40
2023-01-17T05:41:02.815Z,2.40
2023-01-17T05:42:04.471Z,2.30
2023-01-17T05:43:05.928Z,2.30
2023-01-17T05:44:07.539Z,2.30
2023-01-17T05:45:09.848Z,2.20
2023-01-17T05:46:11.457Z,2.10
2023-01-17T05:47:12.846Z,2.10
2023-01-17T05:48:14.391Z,2.20
2023-01-17T05:49:15.787Z,2.10
2023-01-17T05:50:26.528Z,2.10
2023-01-17T05:51:29.357Z,2.10
2023-01-17T05:52:30.771Z,2.00
2023-01-17T05:53:32.299Z,2.00
2023-01-17T05:54:33.719Z,2.00
2023-01-17T05:55:36.198Z,2.00
2023-01-17T05:56:38.003Z,2.10
2023-01-17T05:57:39.460Z,2.00
2023-01-17T05:58:40.874Z,2.00
2023-01-17T05:59:42.450Z,2.00
2023-01-17T06:00:44.936Z,2.00
2023-01-17T06:01:46.384Z,1.90
2023-01-17T06:02:47.990Z,1.80
2023-01-17T06:03:49.711Z,1.80
2023-01-17T06:04:51.428Z,1.80
2023-01-17T06:05:52.901Z,1.80
2023-01-17T06:06:54.285Z,1.80
2023-01-17T06:07:57.121Z,1.80
2023-01-17T06:08:59.022Z,1.80
2023-01-17T06:10:00.740Z,1.80
2023-01-17T06:11:02.201Z,1.80
2023-01-17T06:12:04.091Z,1.70
2023-01-17T06:13:06.018Z,1.80
2023-01-17T06:14:08.746Z,1.80
2023-01-17T06:15:11.268Z,1.90
2023-01-17T06:16:12.857Z,1.90
2023-01-17T06:17:14.545Z,1.80
2023-01-17T06:18:17.367Z,1.80
2023-01-17T06:19:19.036Z,1.80
2023-01-17T06:20:20.440Z,1.80
2023-01-17T06:21:21.831Z,1.70
2023-01-17T06:22:23.413Z,1.70
2023-01-17T06:23:25.451Z,1.70
2023-01-17T06:24:27.766Z,1.70
2023-01-17T06:25:29.526Z,1.70
2023-01-17T06:26:31.377Z,1.70
2023-01-17T06:27:33.166Z,1.70
2023-01-17T06:28:35.084Z,1.80
2023-01-17T06:29:36.936Z,1.80
2023-01-17T06:30:38.525Z,1.80
2023-01-17T06:31:40.129Z,1.80
2023-01-17T06:32:41.552Z,1.70
2023-01-17T06:33:43.388Z,1.70
2023-01-17T06:34:44.926Z,1.70
2023-01-17T06:35:51.071Z,1.70
2023-01-17T06:36:52.804Z,1.70
2023-01-17T06:37:55.631Z,1.70
2023-01-17T06:38:57.312Z,1.60
2023-01-17T06:39:58.680Z,1.50
2023-01-17T06:41:04.506Z,1.50
2023-01-17T06:42:05.967Z,1.50
2023-01-17T06:43:07.568Z,1.60
2023-01-17T06:44:10.023Z,1.50
2023-01-17T06:45:11.836Z,1.50
2023-01-17T06:46:13.280Z,1.50
2023-01-17T06:47:14.747Z,1.50
2023-01-17T06:48:16.168Z,1.40
2023-01-17T06:49:17.613Z,1.40
2023-01-17T06:50:19.050Z,1.40
2023-01-17T06:51:21.214Z,1.50
2023-01-17T06:52:22.582Z,1.50
2023-01-17T06:53:24.016Z,1.50
2023-01-17T06:54:25.528Z,1.50
2023-01-17T06:55:28.976Z,1.60
2023-01-17T06:56:31.932Z,1.60
2023-01-17T06:57:33.650Z,1.50
2023-01-17T06:58:35.736Z,1.50
2023-01-17T06:59:37.217Z,1.50
2023-01-17T07:00:40.895Z,1.50
2023-01-17T07:01:42.706Z,1.50
2023-01-17T07:02:47.752Z,1.30
2023-01-17T07:03:49.278Z,1.30
2023-01-17T07:04:50.849Z,1.30
2023-01-17T07:05:53.120Z,1.20
2023-01-17T07:06:54.803Z,1.20
2023-01-17T07:07:57.380Z,1.30
2023-01-17T07:08:59.146Z,1.30
2023-01-17T07:10:01.689Z,1.30
2023-01-17T07:11:06.008Z,1.30
2023-01-17T07:12:07.917Z,1.30
2023-01-17T07:13:09.489Z,1.40
2023-01-17T07:14:14.481Z,1.40
2023-01-17T07:15:16.113Z,1.30
2023-01-17T07:16:17.650Z,1.30
2023-01-17T07:17:19.118Z,1.30
2023-01-17T07:18:23.355Z,1.30
2023-01-17T07:19:24.791Z,1.20
2023-01-17T07:20:26.431Z,1.30
2023-01-17T07:21:27.987Z,1.30
2023-01-17T07:22:29.556Z,1.40
2023-01-17T07:23:31.344Z,1.40
2023-01-17T07:24:36.339Z,1.30
2023-01-17T07:25:37.918Z,1.40
2023-01-17T07:26:40.223Z,1.30
2023-01-17T07:27:41.995Z,1.30
2023-01-17T07:28:43.800Z,1.30
2023-01-17T07:29:45.230Z,1.20
2023-01-17T07:30:47.315Z,1.20
2023-01-17T07:31:49.286Z,1.10
2023-01-17T07:32:53.341Z,1.20
2023-01-17T07:33:55.053Z,1.20
2023-01-17T07:34:59.562Z,1.20
2023-01-17T07:36:08.623Z,1.20
2023-01-17T07:37:10.042Z,1.20
2023-01-17T07:38:19.782Z,1.10
2023-01-17T07:39:21.828Z,1.20
2023-01-17T07:40:23.588Z,1.20
2023-01-17T07:41:25.340Z,1.10
2023-01-17T07:42:26.740Z,1.10
2023-01-17T07:43:28.773Z,1.10
2023-01-17T07:44:30.179Z,1.00
2023-01-17T07:45:31.562Z,1.10
2023-01-17T07:46:33.155Z,1.10
2023-01-17T07:47:34.919Z,1.00
2023-01-17T07:48:36.392Z,1.00
2023-01-17T07:49:38.002Z,1.00
2023-01-17T07:50:39.684Z,1.00
2023-01-17T07:51:41.102Z,1.20
2023-01-17T07:52:42.704Z,1.20
2023-01-17T07:53:44.141Z,1.20
2023-01-17T07:54:45.633Z,1.20
2023-01-17T07:55:47.210Z,1.30
2023-01-17T07:56:49.389Z,1.30
2023-01-17T07:57:51.167Z,1.40
2023-01-17T07:58:52.651Z,1.30
2023-01-17T07:59:54.227Z,1.30
2023-01-17T08:01:09.104Z,1.30
2023-01-17T08:02:23.834Z,1.20
2023-01-17T08:03:26.423Z,1.30
2023-01-17T08:04:28.751Z,1.30
2023-01-17T08:05:30.873Z,1.30
2023-01-17T08:06:32.251Z,1.30
2023-01-17T08:07:34.010Z,1.30
2023-01-17T08:08:35.400Z,1.30
2023-01-17T08:09:37.079Z,1.40
2023-01-17T08:10:38.551Z,1.40
2023-01-17T08:11:39.937Z,1.40
2023-01-17T08:12:41.666Z,1.40
2023-01-17T08:13:43.058Z,1.40
2023-01-17T08:14:45.008Z,1.40
2023-01-17T08:15:51.400Z,1.50
2023-01-17T08:16:53.788Z,1.40
2023-01-17T08:17:57.782Z,1.50
2023-01-17T08:18:59.263Z,1.50
2023-01-17T08:20:00.991Z,1.60
2023-01-17T08:21:02.519Z,1.60
2023-01-17T08:22:03.974Z,1.60
2023-01-17T08:23:05.679Z,1.60
2023-01-17T08:24:12.801Z,1.60
2023-01-17T08:25:14.339Z,1.60
2023-01-17T08:26:21.443Z,1.70
2023-01-17T08:27:23.168Z,1.70
2023-01-17T08:28:24.734Z,1.70
2023-01-17T08:29:26.578Z,1.80
2023-01-17T08:30:28.423Z,1.80
2023-01-17T08:31:31.907Z,1.90
2023-01-17T08:32:33.823Z,1.90
2023-01-17T08:33:35.297Z,2.00
2023-01-17T08:34:36.732Z,2.00
2023-01-17T08:35:38.528Z,2.00
2023-01-17T08:36:42.813Z,2.00
2023-01-17T08:37:45.246Z,2.00
2023-01-17T08:38:46.643Z,2.00
2023-01-17T08:39:48.093Z,2.00
2023-01-17T08:40:50.824Z,2.10
2023-01-17T08:41:52.340Z,2.10
2023-01-17T08:42:58.331Z,2.10
2023-01-17T08:43:59.755Z,2.20
2023-01-17T08:45:01.189Z,2.20
2023-01-17T08:46:02.890Z,2.20
2023-01-17T08:47:04.742Z,2.20
2023-01-17T08:48:06.200Z,2.20
2023-01-17T08:49:10.540Z,2.20
2023-01-17T08:50:12.053Z,2.20
2023-01-17T08:51:13.704Z,2.20
2023-01-17T08:52:15.460Z,2.30
2023-01-17T08:53:18.511Z,2.20
2023-01-17T08:54:19.980Z,2.20
2023-01-17T08:55:21.607Z,2.30
2023-01-17T08:56:27.302Z,2.30
2023-01-17T08:57:28.761Z,2.40
2023-01-17T08:58:31.396Z,2.40
2023-01-17T08:59:33.256Z,2.50
2023-01-17T09:00:34.998Z,2.50
2023-01-17T09:01:40.733Z,2.50
2023-01-17T09:02:42.981Z,2.50
2023-01-17T09:03:45.619Z,2.60
2023-01-17T09:04:48.804Z,2.60
2023-01-17T09:05:50.620Z,2.60
2023-01-17T09:06:52.096Z,2.60
2023-01-17T09:07:55.151Z,2.70
2023-01-17T09:08:57.051Z,2.70
2023-01-17T09:09:58.882Z,2.70
2023-01-17T09:11:12.203Z,2.80
2023-01-17T09:12:13.607Z,2.90
2023-01-17T09:13:15.440Z,2.90
2023-01-17T09:14:16.935Z,3.00
2023-01-17T09:15:20.242Z,3.10
2023-01-17T09:16:21.729Z,3.20
2023-01-17T09:17:23.197Z,3.20
2023-01-17T09:18:25.756Z,3.20
2023-01-17T09:19:27.595Z,3.30
2023-01-17T09:20:30.786Z,3.40
2023-01-17T09:21:32.288Z,3.40
2023-01-17T09:22:35.961Z,3.50
2023-01-17T09:23:37.535Z,3.50
2023-01-17T09:24:39.105Z,3.60
2023-01-17T09:25:44.572Z,3.60
2023-01-17T09:26:45.996Z,3.60
2023-01-17T09:27:47.546Z,3.60
2023-01-17T09:28:49.103Z,3.60
2023-01-17T09:29:50.756Z,3.70
2023-01-17T09:30:54.258Z,3.70
2023-01-17T09:31:55.880Z,3.80
2023-01-17T09:32:57.621Z,3.90
2023-01-17T09:33:59.257Z,3.90
2023-01-17T09:35:01.018Z,4.00
2023-01-17T09:36:05.407Z,4.10
2023-01-17T09:37:07.599Z,4.10
2023-01-17T09:38:09.530Z,4.20
2023-01-17T09:39:14.420Z,4.30
2023-01-17T09:40:22.528Z,4.30
2023-01-17T09:41:30.349Z,4.40
2023-01-17T09:42:39.270Z,4.40
2023-01-17T09:43:51.587Z,4.50
2023-01-17T09:44:54.543Z,4.60
2023-01-17T09:45:56.091Z,4.70
2023-01-17T09:47:04.828Z,4.70
2023-01-17T09:48:14.416Z,4.70
2023-01-17T09:49:42.211Z,4.70
2023-01-17T09:51:13.193Z,4.70
2023-01-17T09:52:18.588Z,4.80
2023-01-17T09:53:21.434Z,4.70
2023-01-17T09:54:26.502Z,4.80
2023-01-17T09:55:40.024Z,4.80
2023-01-17T09:56:53.022Z,4.80
2023-01-17T09:58:04.300Z,4.90
2023-01-17T09:59:16.839Z,5.00
2023-01-17T10:00:46.214Z,5.00
2023-01-17T10:02:24.345Z,5.10
2023-01-17T10:03:49.155Z,5.20
2023-01-17T10:05:02.956Z,5.30
2023-01-17T10:06:22.931Z,5.30
2023-01-17T10:08:05.000Z,5.40
2023-01-17T10:09:23.249Z,5.40
2023-01-17T10:10:43.013Z,5.40
2023-01-17T10:12:04.359Z,5.50
2023-01-17T10:13:38.311Z,5.50
2023-01-17T10:14:51.512Z,5.50
2023-01-17T10:15:59.468Z,5.60
2023-01-17T10:17:40.279Z,5.60
2023-01-17T10:18:47.788Z,5.60
2023-01-17T10:20:14.043Z,5.60
2023-01-17T10:21:37.329Z,5.60
2023-01-17T10:23:32.423Z,5.60
2023-01-17T10:24:55.785Z,5.60
2023-01-17T10:26:14.266Z,5.60
2023-01-17T10:27:29.887Z,5.50
2023-01-17T10:28:39.891Z,5.50
2023-01-17T10:29:41.505Z,5.40
2023-01-17T10:30:54.629Z,5.40
2023-01-17T10:31:59.775Z,5.40
2023-01-17T10:33:11.774Z,5.40
2023-01-17T10:34:18.639Z,5.40
2023-01-17T10:35:28.187Z,5.40
2023-01-17T10:36:41.600Z,5.40
2023-01-17T10:37:45.371Z,5.60
2023-01-17T10:38:51.183Z,5.60
2023-01-17T10:39:55.988Z,5.70
2023-01-17T10:40:59.950Z,5.70
2023-01-17T10:42:12.138Z,5.80
2023-01-17T10:43:33.723Z,5.80
2023-01-17T10:45:01.719Z,5.90
2023-01-17T10:46:03.355Z,5.90
2023-01-17T10:47:11.085Z,5.90
2023-01-17T10:48:36.170Z,5.80
2023-01-17T10:49:42.497Z,5.60
2023-01-17T10:50:59.088Z,5.60
2023-01-17T10:52:09.209Z,5.60
2023-01-17T10:53:38.657Z,5.60
2023-01-17T10:54:43.342Z,5.60
2023-01-17T10:55:53.417Z,5.50
2023-01-17T10:56:55.075Z,5.60
2023-01-17T10:57:58.049Z,5.60
2023-01-17T10:59:20.588Z,5.70
2023-01-17T11:00:40.308Z,5.80
2023-01-17T11:01:41.967Z,5.80
2023-01-17T11:02:49.602Z,5.80
2023-01-17T11:03:54.504Z,5.60
2023-01-17T11:05:02.541Z,5.60
2023-01-17T11:06:22.365Z,5.70
2023-01-17T11:07:26.453Z,5.70
2023-01-17T11:08:28.004Z,5.70
2023-01-17T11:09:39.989Z,5.70
2023-01-17T11:10:48.196Z,5.60
2023-01-17T11:11:51.523Z,5.60
2023-01-17T11:12:53.003Z,5.50
2023-01-17T11:13:55.756Z,5.40
2023-01-17T11:15:09.253Z,5.40
2023-01-17T11:16:21.771Z,5.30
2023-01-17T11:17:23.444Z,5.40
2023-01-17T11:18:39.388Z,5.40
2023-01-17T11:19:45.340Z,5.50
2023-01-17T11:20:49.958Z,5.50
2023-01-17T11:22:01.725Z,5.50
2023-01-17T11:23:26.777Z,5.60
2023-01-17T11:24:42.422Z,5.60
2023-01-17T11:26:23.028Z,5.60
2023-01-17T11:27:30.728Z,5.70
2023-01-17T11:28:34.660Z,5.60
2023-01-17T11:29:39.452Z,5.60
2023-01-17T11:30:56.551Z,5.50
2023-01-17T11:32:17.975Z,5.50
2023-01-17T11:33:46.048Z,5.50
2023-01-17T11:35:10.872Z,5.40
2023-01-17T11:36:35.251Z,5.20
2023-01-17T11:37:37.741Z,5.20
2023-01-17T11:38:39.150Z,5.20
2023-01-17T11:39:40.988Z,5.20
2023-01-17T11:40:48.527Z,5.20
2023-01-17T11:41:51.017Z,5.30
2023-01-17T11:43:21.546Z,5.20
2023-01-17T11:44:34.524Z,5.30
2023-01-17T11:45:38.243Z,5.30
2023-01-17T11:46:39.986Z,5.40
2023-01-17T11:47:41.417Z,5.40
2023-01-17T11:48:51.330Z,5.50
2023-01-17T11:49:52.862Z,5.50
2023-01-17T11:50:58.116Z,5.50
2023-01-17T11:52:01.863Z,5.50
2023-01-17T11:53:28.060Z,5.50
2023-01-17T11:54:38.876Z,5.50
2023-01-17T11:55:40.753Z,5.40
2023-01-17T11:56:46.681Z,5.40
2023-01-17T11:57:50.538Z,5.40
2023-01-17T11:58:53.122Z,5.40
2023-01-17T12:00:45.958Z,5.50
2023-01-17T12:02:13.042Z,5.40
2023-01-17T12:03:40.750Z,5.50
2023-01-17T12:05:21.130Z,5.30
2023-01-17T12:06:57.334Z,5.30
2023-01-17T12:08:32.085Z,5.40
2023-01-17T12:10:07.748Z,5.40
2023-01-17T12:12:03.724Z,5.40
2023-01-17T12:13:27.589Z,5.40
2023-01-17T12:14:53.278Z,5.40
2023-01-17T12:16:32.757Z,5.50
2023-01-17T12:18:15.317Z,5.50
2023-01-17T12:19:48.866Z,5.40
2023-01-17T12:21:31.068Z,5.20
2023-01-17T12:23:01.581Z,4.90
2023-01-17T12:24:36.724Z,4.90
2023-01-17T12:25:47.294Z,4.90
2023-01-17T12:27:07.648Z,4.90
2023-01-17T12:28:48.521Z,5.00
2023-01-17T12:30:30.589Z,5.00
2023-01-17T12:31:49.481Z,5.00
2023-01-17T12:33:12.930Z,5.00
2023-01-17T12:34:26.595Z,5.00
2023-01-17T12:35:47.445Z,5.00
2023-01-17T12:36:58.174Z,4.90
2023-01-17T12:38:07.491Z,4.80
2023-01-17T12:39:14.055Z,4.80
2023-01-17T12:40:15.490Z,4.80
2023-01-17T12:41:28.921Z,4.90
2023-01-17T12:42:40.621Z,5.00
2023-01-17T12:43:43.564Z,5.00
2023-01-17T12:45:02.824Z,5.00
2023-01-17T12:46:20.923Z,5.00
2023-01-17T12:47:22.697Z,5.00
2023-01-17T12:48:29.016Z,5.10
2023-01-17T12:49:58.505Z,5.20
2023-01-17T12:51:18.209Z,5.20
2023-01-17T12:52:39.956Z,5.20
2023-01-17T12:53:57.703Z,5.10
2023-01-17T12:55:07.360Z,5.10
2023-01-17T12:56:30.213Z,5.10
2023-01-17T12:57:39.816Z,5.10
2023-01-17T12:58:52.115Z,5.20
2023-01-17T13:00:02.018Z,5.20
2023-01-17T13:01:11.566Z,5.20
2023-01-17T13:02:22.416Z,5.20
2023-01-17T13:03:50.856Z,5.20
2023-01-17T13:05:06.763Z,5.20
2023-01-17T13:06:15.863Z,5.30
2023-01-17T13:07:59.569Z,5.40
2023-01-17T13:09:03.867Z,5.40
2023-01-17T13:10:17.848Z,5.40
2023-01-17T13:11:30.730Z,5.30
2023-01-17T13:12:36.749Z,5.20
2023-01-17T13:13:41.200Z,5.20
2023-01-17T13:14:45.331Z,5.20
2023-01-17T13:15:50.392Z,5.20
2023-01-17T13:17:24.466Z,5.30
2023-01-17T13:18:29.625Z,5.30
2023-01-17T13:19:47.532Z,5.30
2023-01-17T13:20:56.446Z,5.30
2023-01-17T13:22:00.114Z,5.50
2023-01-17T13:23:13.025Z,5.60
2023-01-17T13:24:42.644Z,5.70
2023-01-17T13:25:51.045Z,5.70
2023-01-17T13:27:40.667Z,5.70
2023-01-17T13:28:55.250Z,5.80
2023-01-17T13:30:22.307Z,5.90
2023-01-17T13:31:33.214Z,5.80
2023-01-17T13:32:46.605Z,5.80
2023-01-17T13:34:22.542Z,5.90
2023-01-17T13:35:58.169Z,5.90
2023-01-17T13:37:16.043Z,6.10
2023-01-17T13:38:55.890Z,6.10
2023-01-17T13:40:29.643Z,6.20
2023-01-17T13:41:50.389Z,6.20
2023-01-17T13:42:56.683Z,6.20
2023-01-17T13:44:19.448Z,6.20
2023-01-17T13:45:23.953Z,6.20
2023-01-17T13:46:30.484Z,6.30
2023-01-17T13:47:32.153Z,6.30
2023-01-17T13:48:38.375Z,6.30
2023-01-17T13:49:48.638Z,6.20
2023-01-17T13:50:57.821Z,6.30
2023-01-17T13:52:10.822Z,6.30
2023-01-17T13:53:28.123Z,6.30
2023-01-17T13:54:33.901Z,6.30
2023-01-17T13:55:47.179Z,6.20
2023-01-17T13:56:48.602Z,6.20
2023-01-17T13:57:50.102Z,6.10
2023-01-17T13:58:54.957Z,6.10
2023-01-17T13:59:58.249Z,6.00
2023-01-17T14:01:00.162Z,6.00
2023-01-17T14:02:02.514Z,6.00
2023-01-17T14:03:04.975Z,6.00
2023-01-17T14:04:08.907Z,6.00
2023-01-17T14:05:18.085Z,6.00
2023-01-17T14:06:35.885Z,6.10
2023-01-17T14:08:04.705Z,6.10
2023-01-17T14:09:18.777Z,6.10
2023-01-17T14:10:23.153Z,6.00
2023-01-17T14:11:25.896Z,6.00
2023-01-17T14:12:32.464Z,6.00
2023-01-17T14:13:39.694Z,6.00
2023-01-17T14:14:44.310Z,5.90
2023-01-17T14:15:50.310Z,5.90
2023-01-17T14:16:52.002Z,5.90
2023-01-17T14:17:57.248Z,5.90
2023-01-17T14:18:58.807Z,5.80
2023-01-17T14:20:06.003Z,5.80
2023-01-17T14:21:21.284Z,5.80
2023-01-17T14:22:27.002Z,5.70
2023-01-17T14:23:33.744Z,5.70
2023-01-17T14:25:15.771Z,5.60
2023-01-17T14:26:28.610Z,5.60
2023-01-17T14:27:38.061Z,5.60
2023-01-17T14:28:40.834Z,5.50
2023-01-17T14:30:00.144Z,5.40
2023-01-17T14:31:10.213Z,5.40
2023-01-17T14:32:14.262Z,5.30
2023-01-17T14:33:28.671Z,5.20
2023-01-17T14:34:30.225Z,5.20
2023-01-17T14:35:52.374Z,5.20
2023-01-17T14:37:14.144Z,5.10
2023-01-17T14:38:21.186Z,5.00
2023-01-17T14:39:22.956Z,5.00
2023-01-17T14:40:27.432Z,4.90
2023-01-17T14:41:30.086Z,4.90
2023-01-17T14:42:33.759Z,4.90
2023-01-17T14:43:45.569Z,4.90
2023-01-17T14:44:53.254Z,5.00
2023-01-17T14:46:07.806Z,4.90
2023-01-17T14:47:13.724Z,4.90
2023-01-17T14:48:21.834Z,4.80
2023-01-17T14:49:25.946Z,4.80
2023-01-17T14:50:30.365Z,4.80
2023-01-17T14:51:37.094Z,4.70
2023-01-17T14:52:38.996Z,4.70
2023-01-17T14:53:53.333Z,4.70
2023-01-17T14:54:54.804Z,4.70
2023-01-17T14:56:13.354Z,4.60
2023-01-17T14:57:35.202Z,4.60
2023-01-17T14:58:37.467Z,4.50
2023-01-17T14:59:38.928Z,4.40
2023-01-17T15:00:40.940Z,4.40
2023-01-17T15:01:50.046Z,4.40
2023-01-17T15:02:59.349Z,4.50
2023-01-17T15:04:00.869Z,4.50
2023-01-17T15:05:02.461Z,4.40
2023-01-17T15:06:12.029Z,4.40